Terminal Aerodrome Forecast
Issued by NWS

Home | Current Version | Previous Version | Text Only | Print | Product List | Glossary On
Versions: 1 2 3 4 5 6 7 8 9 10 11 12 13 14 15 16 17 18 19 20 21 22
000
FTUS46 KSEW 290500
TAFBLI
TAF
KBLI 290530Z 2906/3006 00000KT P6SM BCFG SCT200
      TEMPO 2906/2908 1/2SM BCFG BKN001 BKN200
     FM290800 00000KT P6SM BKN080
     FM291100 VRB03KT P6SM BKN060
     FM291900 34005KT P6SM SCT250=

USA.gov is the U.S. government's official web portal to all federal, state and local government web resources and services.